sensor_id;sensor_type;location;lat;lon;timestamp;P1;durP1;ratioP1;P2;durP2;ratioP2
1685;SDS011;840;47.980;7.830;2022-12-13T00:02:06;24.15;;;14.85;;
1685;SDS011;840;47.980;7.830;2022-12-13T00:04:32;21.08;;;13.98;;
1685;SDS011;840;47.980;7.830;2022-12-13T00:06:59;20.42;;;14.30;;
1685;SDS011;840;47.980;7.830;2022-12-13T00:09:26;23.25;;;15.88;;
1685;SDS011;840;47.980;7.830;2022-12-13T00:11:54;20.38;;;12.90;;
1685;SDS011;840;47.980;7.830;2022-12-13T00:14:21;20.80;;;13.93;;
1685;SDS011;840;47.980;7.830;2022-12-13T00:16:48;19.35;;;13.48;;
1685;SDS011;840;47.980;7.830;2022-12-13T00:19:16;18.27;;;11.63;;
1685;SDS011;840;47.980;7.830;2022-12-13T00:21:43;24.85;;;16.17;;
1685;SDS011;840;47.980;7.830;2022-12-13T00:24:11;22.90;;;15.52;;
1685;SDS011;840;47.980;7.830;2022-12-13T00:26:38;20.92;;;14.35;;
1685;SDS011;840;47.980;7.830;2022-12-13T00:29:08;21.58;;;14.27;;
1685;SDS011;840;47.980;7.830;2022-12-13T00:31:36;24.00;;;16.95;;
1685;SDS011;840;47.980;7.830;2022-12-13T00:34:03;23.27;;;13.75;;
1685;SDS011;840;47.980;7.830;2022-12-13T00:36:30;25.88;;;17.60;;
1685;SDS011;840;47.980;7.830;2022-12-13T00:38:57;22.95;;;17.50;;
1685;SDS011;840;47.980;7.830;2022-12-13T00:41:27;27.00;;;15.35;;
1685;SDS011;840;47.980;7.830;2022-12-13T00:43:55;28.27;;;17.65;;
1685;SDS011;840;47.980;7.830;2022-12-13T00:46:27;23.25;;;15.77;;
1685;SDS011;840;47.980;7.830;2022-12-13T00:48:55;21.75;;;14.13;;
1685;SDS011;840;47.980;7.830;2022-12-13T00:51:23;29.08;;;15.70;;
1685;SDS011;840;47.980;7.830;2022-12-13T00:53:51;26.98;;;16.77;;
1685;SDS011;840;47.980;7.830;2022-12-13T00:56:19;21.33;;;15.57;;
1685;SDS011;840;47.980;7.830;2022-12-13T00:58:49;24.10;;;17.00;;
1685;SDS011;840;47.980;7.830;2022-12-13T01:01:17;22.42;;;16.02;;
1685;SDS011;840;47.980;7.830;2022-12-13T01:03:48;26.38;;;16.95;;
1685;SDS011;840;47.980;7.830;2022-12-13T01:06:16;25.48;;;15.85;;
1685;SDS011;840;47.980;7.830;2022-12-13T01:08:45;16.52;;;12.35;;
1685;SDS011;840;47.980;7.830;2022-12-13T01:11:13;23.08;;;15.23;;
1685;SDS011;840;47.980;7.830;2022-12-13T01:13:40;21.88;;;14.35;;
1685;SDS011;840;47.980;7.830;2022-12-13T01:16:09;22.42;;;15.52;;
1685;SDS011;840;47.980;7.830;2022-12-13T01:18:38;25.67;;;16.23;;
1685;SDS011;840;47.980;7.830;2022-12-13T01:21:09;21.25;;;15.88;;
1685;SDS011;840;47.980;7.830;2022-12-13T01:23:37;23.60;;;14.77;;
1685;SDS011;840;47.980;7.830;2022-12-13T01:26:05;22.10;;;14.65;;
1685;SDS011;840;47.980;7.830;2022-12-13T01:28:33;23.23;;;15.85;;
1685;SDS011;840;47.980;7.830;2022-12-13T01:31:01;25.45;;;15.70;;
1685;SDS011;840;47.980;7.830;2022-12-13T01:33:29;22.27;;;13.95;;
1685;SDS011;840;47.980;7.830;2022-12-13T01:35:59;26.13;;;15.80;;
1685;SDS011;840;47.980;7.830;2022-12-13T01:38:27;21.73;;;14.85;;
1685;SDS011;840;47.980;7.830;2022-12-13T01:40:55;23.55;;;14.48;;
1685;SDS011;840;47.980;7.830;2022-12-13T01:43:23;21.95;;;15.57;;
1685;SDS011;840;47.980;7.830;2022-12-13T01:45:51;24.17;;;16.15;;
1685;SDS011;840;47.980;7.830;2022-12-13T01:48:18;23.98;;;16.40;;
1685;SDS011;840;47.980;7.830;2022-12-13T01:50:50;27.30;;;15.35;;
1685;SDS011;840;47.980;7.830;2022-12-13T01:53:20;25.60;;;16.90;;
1685;SDS011;840;47.980;7.830;2022-12-13T01:55:54;20.90;;;15.30;;
1685;SDS011;840;47.980;7.830;2022-12-13T01:58:26;26.10;;;15.05;;
1685;SDS011;840;47.980;7.830;2022-12-13T02:00:54;22.05;;;16.10;;
1685;SDS011;840;47.980;7.830;2022-12-13T02:03:21;23.27;;;15.15;;
1685;SDS011;840;47.980;7.830;2022-12-13T02:05:50;25.00;;;17.17;;
1685;SDS011;840;47.980;7.830;2022-12-13T02:08:23;20.85;;;13.80;;
1685;SDS011;840;47.980;7.830;2022-12-13T02:10:54;23.98;;;15.00;;
1685;SDS011;840;47.980;7.830;2022-12-13T02:13:22;21.48;;;15.75;;
1685;SDS011;840;47.980;7.830;2022-12-13T02:15:51;19.58;;;14.00;;
1685;SDS011;840;47.980;7.830;2022-12-13T02:18:26;19.13;;;14.90;;
1685;SDS011;840;47.980;7.830;2022-12-13T02:21:11;24.65;;;15.48;;
1685;SDS011;840;47.980;7.830;2022-12-13T02:29:47;19.85;;;12.00;;
1685;SDS011;840;47.980;7.830;2022-12-13T02:32:38;15.90;;;12.07;;
1685;SDS011;840;47.980;7.830;2022-12-13T02:35:13;16.95;;;13.43;;
1685;SDS011;840;47.980;7.830;2022-12-13T02:37:49;24.27;;;12.98;;
1685;SDS011;840;47.980;7.830;2022-12-13T02:40:20;24.65;;;14.32;;
1685;SDS011;840;47.980;7.830;2022-12-13T02:42:53;20.23;;;13.75;;
1685;SDS011;840;47.980;7.830;2022-12-13T02:45:27;18.52;;;15.10;;
1685;SDS011;840;47.980;7.830;2022-12-13T02:47:58;20.88;;;14.13;;
1685;SDS011;840;47.980;7.830;2022-12-13T02:50:29;24.75;;;15.55;;
1685;SDS011;840;47.980;7.830;2022-12-13T02:52:57;21.88;;;15.45;;
1685;SDS011;840;47.980;7.830;2022-12-13T02:55:26;25.42;;;15.02;;
1685;SDS011;840;47.980;7.830;2022-12-13T02:57:54;25.23;;;14.00;;
1685;SDS011;840;47.980;7.830;2022-12-13T03:00:21;22.45;;;14.18;;
1685;SDS011;840;47.980;7.830;2022-12-13T03:03:00;19.40;;;14.15;;
1685;SDS011;840;47.980;7.830;2022-12-13T03:05:37;21.65;;;13.77;;
1685;SDS011;840;47.980;7.830;2022-12-13T03:08:29;20.65;;;12.55;;
1685;SDS011;840;47.980;7.830;2022-12-13T03:11:04;20.75;;;13.88;;
1685;SDS011;840;47.980;7.830;2022-12-13T03:13:36;16.42;;;13.50;;
1685;SDS011;840;47.980;7.830;2022-12-13T03:16:14;19.90;;;12.32;;
1685;SDS011;840;47.980;7.830;2022-12-13T03:18:48;18.98;;;12.30;;
1685;SDS011;840;47.980;7.830;2022-12-13T03:21:17;16.63;;;12.65;;
1685;SDS011;840;47.980;7.830;2022-12-13T03:23:44;19.90;;;13.70;;
1685;SDS011;840;47.980;7.830;2022-12-13T03:26:12;21.13;;;13.27;;
1685;SDS011;840;47.980;7.830;2022-12-13T03:28:41;25.13;;;14.93;;
1685;SDS011;840;47.980;7.830;2022-12-13T03:31:08;20.27;;;14.00;;
1685;SDS011;840;47.980;7.830;2022-12-13T03:33:35;23.77;;;15.63;;
1685;SDS011;840;47.980;7.830;2022-12-13T03:36:05;20.65;;;14.10;;
1685;SDS011;840;47.980;7.830;2022-12-13T03:38:33;20.20;;;16.17;;
1685;SDS011;840;47.980;7.830;2022-12-13T03:41:02;21.90;;;13.75;;
1685;SDS011;840;47.980;7.830;2022-12-13T03:43:30;22.88;;;13.93;;
1685;SDS011;840;47.980;7.830;2022-12-13T03:45:57;21.67;;;14.88;;
1685;SDS011;840;47.980;7.830;2022-12-13T03:48:25;27.92;;;15.23;;
1685;SDS011;840;47.980;7.830;2022-12-13T03:50:52;18.50;;;12.55;;
1685;SDS011;840;47.980;7.830;2022-12-13T03:53:22;20.50;;;14.20;;
1685;SDS011;840;47.980;7.830;2022-12-13T03:55:50;19.70;;;13.85;;
1685;SDS011;840;47.980;7.830;2022-12-13T03:58:19;22.80;;;14.30;;
1685;SDS011;840;47.980;7.830;2022-12-13T04:00:46;21.75;;;14.32;;
1685;SDS011;840;47.980;7.830;2022-12-13T04:03:13;24.45;;;16.35;;
1685;SDS011;840;47.980;7.830;2022-12-13T04:05:40;22.65;;;14.07;;
1685;SDS011;840;47.980;7.830;2022-12-13T04:08:08;21.38;;;14.65;;
1685;SDS011;840;47.980;7.830;2022-12-13T04:10:36;21.60;;;16.05;;
1685;SDS011;840;47.980;7.830;2022-12-13T04:13:03;20.10;;;13.80;;
1685;SDS011;840;47.980;7.830;2022-12-13T04:15:47;23.88;;;14.23;;
1685;SDS011;840;47.980;7.830;2022-12-13T04:18:14;21.80;;;12.75;;
1685;SDS011;840;47.980;7.830;2022-12-13T04:20:41;21.10;;;13.70;;
1685;SDS011;840;47.980;7.830;2022-12-13T04:23:08;24.23;;;16.10;;
1685;SDS011;840;47.980;7.830;2022-12-13T04:25:37;23.05;;;16.15;;
1685;SDS011;840;47.980;7.830;2022-12-13T04:28:04;24.92;;;15.85;;
1685;SDS011;840;47.980;7.830;2022-12-13T04:30:31;21.92;;;13.77;;
1685;SDS011;840;47.980;7.830;2022-12-13T04:32:59;23.42;;;15.82;;
1685;SDS011;840;47.980;7.830;2022-12-13T04:35:27;24.55;;;15.38;;
1685;SDS011;840;47.980;7.830;2022-12-13T04:37:53;21.15;;;14.60;;
1685;SDS011;840;47.980;7.830;2022-12-13T04:40:21;28.23;;;17.13;;
1685;SDS011;840;47.980;7.830;2022-12-13T04:42:49;20.60;;;14.43;;
1685;SDS011;840;47.980;7.830;2022-12-13T04:45:16;20.50;;;14.57;;
1685;SDS011;840;47.980;7.830;2022-12-13T04:47:43;20.20;;;13.85;;
1685;SDS011;840;47.980;7.830;2022-12-13T04:50:10;23.63;;;15.88;;
1685;SDS011;840;47.980;7.830;2022-12-13T04:52:37;23.77;;;16.63;;
1685;SDS011;840;47.980;7.830;2022-12-13T04:55:04;26.52;;;17.95;;
1685;SDS011;840;47.980;7.830;2022-12-13T04:57:33;19.95;;;14.68;;
1685;SDS011;840;47.980;7.830;2022-12-13T05:00:01;27.05;;;17.17;;
1685;SDS011;840;47.980;7.830;2022-12-13T05:02:28;23.70;;;15.40;;
1685;SDS011;840;47.980;7.830;2022-12-13T05:04:55;26.58;;;18.08;;
1685;SDS011;840;47.980;7.830;2022-12-13T05:07:24;25.42;;;18.15;;
1685;SDS011;840;47.980;7.830;2022-12-13T05:09:51;27.67;;;15.32;;
1685;SDS011;840;47.980;7.830;2022-12-13T05:12:18;23.95;;;15.00;;
1685;SDS011;840;47.980;7.830;2022-12-13T05:14:45;27.05;;;16.20;;
1685;SDS011;840;47.980;7.830;2022-12-13T05:17:13;18.80;;;14.15;;
1685;SDS011;840;47.980;7.830;2022-12-13T05:19:40;22.48;;;11.70;;
1685;SDS011;840;47.980;7.830;2022-12-13T05:22:08;21.20;;;16.77;;
1685;SDS011;840;47.980;7.830;2022-12-13T05:24:39;20.35;;;11.98;;
1685;SDS011;840;47.980;7.830;2022-12-13T05:27:06;19.50;;;14.18;;
1685;SDS011;840;47.980;7.830;2022-12-13T05:29:33;23.00;;;14.95;;
1685;SDS011;840;47.980;7.830;2022-12-13T05:32:01;21.23;;;15.55;;
1685;SDS011;840;47.980;7.830;2022-12-13T05:34:30;26.63;;;14.10;;
1685;SDS011;840;47.980;7.830;2022-12-13T05:36:56;24.55;;;14.25;;
1685;SDS011;840;47.980;7.830;2022-12-13T05:39:23;23.48;;;15.95;;
1685;SDS011;840;47.980;7.830;2022-12-13T05:41:50;22.83;;;12.88;;
1685;SDS011;840;47.980;7.830;2022-12-13T05:44:17;20.77;;;14.68;;
1685;SDS011;840;47.980;7.830;2022-12-13T05:46:44;25.00;;;15.88;;
1685;SDS011;840;47.980;7.830;2022-12-13T05:49:11;18.63;;;14.18;;
1685;SDS011;840;47.980;7.830;2022-12-13T05:51:39;26.10;;;17.33;;
1685;SDS011;840;47.980;7.830;2022-12-13T05:54:06;21.67;;;14.60;;
1685;SDS011;840;47.980;7.830;2022-12-13T05:56:33;22.60;;;15.05;;
1685;SDS011;840;47.980;7.830;2022-12-13T05:59:00;25.35;;;15.95;;
1685;SDS011;840;47.980;7.830;2022-12-13T06:01:27;23.08;;;16.48;;
1685;SDS011;840;47.980;7.830;2022-12-13T06:03:53;21.60;;;15.57;;
1685;SDS011;840;47.980;7.830;2022-12-13T06:06:20;27.45;;;15.02;;
1685;SDS011;840;47.980;7.830;2022-12-13T06:08:49;21.13;;;14.23;;
1685;SDS011;840;47.980;7.830;2022-12-13T06:11:16;20.30;;;14.73;;
1685;SDS011;840;47.980;7.830;2022-12-13T06:13:43;26.63;;;15.05;;
1685;SDS011;840;47.980;7.830;2022-12-13T06:16:11;21.80;;;15.77;;
1685;SDS011;840;47.980;7.830;2022-12-13T06:18:38;26.80;;;15.10;;
1685;SDS011;840;47.980;7.830;2022-12-13T06:21:05;20.95;;;14.82;;
1685;SDS011;840;47.980;7.830;2022-12-13T06:23:33;21.85;;;14.45;;
1685;SDS011;840;47.980;7.830;2022-12-13T06:26:02;23.65;;;17.20;;
1685;SDS011;840;47.980;7.830;2022-12-13T06:28:29;22.58;;;14.90;;
1685;SDS011;840;47.980;7.830;2022-12-13T06:30:57;23.42;;;14.70;;
1685;SDS011;840;47.980;7.830;2022-12-13T06:33:25;26.58;;;16.20;;
1685;SDS011;840;47.980;7.830;2022-12-13T06:35:54;23.70;;;15.48;;
1685;SDS011;840;47.980;7.830;2022-12-13T06:38:22;27.42;;;15.32;;
1685;SDS011;840;47.980;7.830;2022-12-13T06:40:49;18.35;;;11.77;;
1685;SDS011;840;47.980;7.830;2022-12-13T06:43:19;21.17;;;14.52;;
1685;SDS011;840;47.980;7.830;2022-12-13T06:45:46;23.33;;;13.77;;
1685;SDS011;840;47.980;7.830;2022-12-13T06:48:13;25.15;;;12.90;;
1685;SDS011;840;47.980;7.830;2022-12-13T06:50:40;19.30;;;13.48;;
1685;SDS011;840;47.980;7.830;2022-12-13T06:53:07;19.10;;;14.57;;
1685;SDS011;840;47.980;7.830;2022-12-13T06:55:35;19.45;;;14.95;;
1685;SDS011;840;47.980;7.830;2022-12-13T06:58:02;19.92;;;14.30;;
1685;SDS011;840;47.980;7.830;2022-12-13T07:00:31;19.98;;;13.80;;
1685;SDS011;840;47.980;7.830;2022-12-13T07:02:59;22.98;;;14.60;;
1685;SDS011;840;47.980;7.830;2022-12-13T07:05:26;24.02;;;16.48;;
1685;SDS011;840;47.980;7.830;2022-12-13T07:07:53;26.48;;;16.40;;
1685;SDS011;840;47.980;7.830;2022-12-13T07:10:20;18.58;;;14.88;;
1685;SDS011;840;47.980;7.830;2022-12-13T07:12:47;22.17;;;15.88;;
1685;SDS011;840;47.980;7.830;2022-12-13T07:15:14;20.90;;;13.95;;
1685;SDS011;840;47.980;7.830;2022-12-13T07:17:42;22.65;;;14.88;;
1685;SDS011;840;47.980;7.830;2022-12-13T07:20:09;30.13;;;15.55;;
1685;SDS011;840;47.980;7.830;2022-12-13T07:22:39;18.35;;;14.60;;
1685;SDS011;840;47.980;7.830;2022-12-13T07:25:06;23.17;;;17.65;;
1685;SDS011;840;47.980;7.830;2022-12-13T07:27:33;26.05;;;19.50;;
1685;SDS011;840;47.980;7.830;2022-12-13T07:30:00;25.88;;;15.88;;
1685;SDS011;840;47.980;7.830;2022-12-13T07:32:29;30.25;;;16.67;;
1685;SDS011;840;47.980;7.830;2022-12-13T07:34:58;26.88;;;16.92;;
1685;SDS011;840;47.980;7.830;2022-12-13T07:37:26;27.10;;;16.70;;
1685;SDS011;840;47.980;7.830;2022-12-13T07:39:53;32.25;;;17.80;;
1685;SDS011;840;47.980;7.830;2022-12-13T07:42:20;33.35;;;17.63;;
1685;SDS011;840;47.980;7.830;2022-12-13T07:44:47;21.23;;;15.50;;
1685;SDS011;840;47.980;7.830;2022-12-13T07:47:14;23.83;;;15.40;;
1685;SDS011;840;47.980;7.830;2022-12-13T07:49:41;25.30;;;17.13;;
1685;SDS011;840;47.980;7.830;2022-12-13T07:52:10;25.38;;;16.05;;
1685;SDS011;840;47.980;7.830;2022-12-13T07:54:38;22.45;;;15.43;;
1685;SDS011;840;47.980;7.830;2022-12-13T07:57:05;27.38;;;15.50;;
1685;SDS011;840;47.980;7.830;2022-12-13T07:59:31;22.25;;;15.43;;
1685;SDS011;840;47.980;7.830;2022-12-13T08:01:58;26.25;;;15.55;;
1685;SDS011;840;47.980;7.830;2022-12-13T08:04:25;24.27;;;15.93;;
1685;SDS011;840;47.980;7.830;2022-12-13T08:06:52;22.00;;;14.98;;
1685;SDS011;840;47.980;7.830;2022-12-13T08:09:20;23.45;;;16.35;;
1685;SDS011;840;47.980;7.830;2022-12-13T08:11:47;31.63;;;16.83;;
1685;SDS011;840;47.980;7.830;2022-12-13T08:14:14;26.30;;;15.73;;
1685;SDS011;840;47.980;7.830;2022-12-13T08:16:41;26.55;;;16.58;;
1685;SDS011;840;47.980;7.830;2022-12-13T08:19:07;38.50;;;22.40;;
1685;SDS011;840;47.980;7.830;2022-12-13T08:21:35;30.00;;;20.42;;
1685;SDS011;840;47.980;7.830;2022-12-13T08:24:05;24.95;;;16.95;;
1685;SDS011;840;47.980;7.830;2022-12-13T08:26:33;37.22;;;20.00;;
1685;SDS011;840;47.980;7.830;2022-12-13T08:29:00;28.50;;;18.55;;
1685;SDS011;840;47.980;7.830;2022-12-13T08:31:28;26.05;;;17.98;;
1685;SDS011;840;47.980;7.830;2022-12-13T08:33:55;33.20;;;19.60;;
1685;SDS011;840;47.980;7.830;2022-12-13T08:36:22;27.58;;;16.17;;
1685;SDS011;840;47.980;7.830;2022-12-13T08:38:49;27.92;;;18.77;;
1685;SDS011;840;47.980;7.830;2022-12-13T08:41:17;32.40;;;16.35;;
1685;SDS011;840;47.980;7.830;2022-12-13T08:43:46;33.45;;;20.23;;
1685;SDS011;840;47.980;7.830;2022-12-13T08:46:13;29.23;;;19.50;;
1685;SDS011;840;47.980;7.830;2022-12-13T08:48:40;26.90;;;17.95;;
1685;SDS011;840;47.980;7.830;2022-12-13T08:51:08;29.52;;;17.77;;
1685;SDS011;840;47.980;7.830;2022-12-13T08:53:36;29.30;;;18.35;;
1685;SDS011;840;47.980;7.830;2022-12-13T08:56:04;24.77;;;18.35;;
1685;SDS011;840;47.980;7.830;2022-12-13T08:58:33;31.67;;;16.42;;
1685;SDS011;840;47.980;7.830;2022-12-13T09:01:03;26.77;;;17.25;;
1685;SDS011;840;47.980;7.830;2022-12-13T09:03:30;31.85;;;19.55;;
1685;SDS011;840;47.980;7.830;2022-12-13T09:06:04;32.00;;;17.30;;
1685;SDS011;840;47.980;7.830;2022-12-13T09:08:31;28.85;;;17.10;;
1685;SDS011;840;47.980;7.830;2022-12-13T09:11:00;29.67;;;18.52;;
1685;SDS011;840;47.980;7.830;2022-12-13T09:13:28;27.92;;;17.13;;
1685;SDS011;840;47.980;7.830;2022-12-13T09:15:56;34.53;;;20.35;;
1685;SDS011;840;47.980;7.830;2022-12-13T09:18:24;26.25;;;17.08;;
1685;SDS011;840;47.980;7.830;2022-12-13T09:20:51;27.88;;;17.98;;
1685;SDS011;840;47.980;7.830;2022-12-13T09:23:18;25.08;;;16.90;;
1685;SDS011;840;47.980;7.830;2022-12-13T09:25:51;33.85;;;17.48;;
1685;SDS011;840;47.980;7.830;2022-12-13T09:28:19;32.10;;;23.70;;
1685;SDS011;840;47.980;7.830;2022-12-13T09:30:47;28.73;;;22.73;;
1685;SDS011;840;47.980;7.830;2022-12-13T09:33:14;31.15;;;19.85;;
1685;SDS011;840;47.980;7.830;2022-12-13T09:35:42;27.20;;;20.15;;
1685;SDS011;840;47.980;7.830;2022-12-13T09:38:09;28.13;;;18.48;;
1685;SDS011;840;47.980;7.830;2022-12-13T09:40:36;28.30;;;19.60;;
1685;SDS011;840;47.980;7.830;2022-12-13T09:43:04;32.35;;;18.35;;
1685;SDS011;840;47.980;7.830;2022-12-13T09:45:31;32.08;;;18.38;;
1685;SDS011;840;47.980;7.830;2022-12-13T09:48:00;30.15;;;18.13;;
1685;SDS011;840;47.980;7.830;2022-12-13T09:50:28;27.83;;;17.75;;
1685;SDS011;840;47.980;7.830;2022-12-13T09:52:59;29.83;;;18.30;;
1685;SDS011;840;47.980;7.830;2022-12-13T09:55:29;25.70;;;17.45;;
1685;SDS011;840;47.980;7.830;2022-12-13T09:57:59;25.67;;;18.27;;
1685;SDS011;840;47.980;7.830;2022-12-13T10:00:34;27.13;;;17.98;;
1685;SDS011;840;47.980;7.830;2022-12-13T10:03:01;24.63;;;16.63;;
1685;SDS011;840;47.980;7.830;2022-12-13T10:05:29;28.80;;;18.63;;
1685;SDS011;840;47.980;7.830;2022-12-13T10:08:03;28.70;;;20.17;;
1685;SDS011;840;47.980;7.830;2022-12-13T10:10:31;31.10;;;18.05;;
1685;SDS011;840;47.980;7.830;2022-12-13T10:13:00;22.08;;;18.40;;
1685;SDS011;840;47.980;7.830;2022-12-13T10:15:34;32.50;;;22.80;;
1685;SDS011;840;47.980;7.830;2022-12-13T10:18:04;28.38;;;19.40;;
1685;SDS011;840;47.980;7.830;2022-12-13T10:20:33;26.25;;;18.25;;
1685;SDS011;840;47.980;7.830;2022-12-13T10:23:01;26.80;;;18.58;;
1685;SDS011;840;47.980;7.830;2022-12-13T10:25:46;28.13;;;17.13;;
1685;SDS011;840;47.980;7.830;2022-12-13T10:28:15;28.48;;;17.40;;
1685;SDS011;840;47.980;7.830;2022-12-13T10:30:43;30.27;;;21.20;;
1685;SDS011;840;47.980;7.830;2022-12-13T10:33:18;27.70;;;17.88;;
1685;SDS011;840;47.980;7.830;2022-12-13T10:36:00;29.90;;;19.77;;
1685;SDS011;840;47.980;7.830;2022-12-13T10:38:35;29.85;;;17.70;;
1685;SDS011;840;47.980;7.830;2022-12-13T10:41:04;37.97;;;20.50;;
1685;SDS011;840;47.980;7.830;2022-12-13T10:44:05;28.75;;;16.73;;
1685;SDS011;840;47.980;7.830;2022-12-13T10:46:34;26.52;;;18.08;;
1685;SDS011;840;47.980;7.830;2022-12-13T10:49:01;30.88;;;17.55;;
1685;SDS011;840;47.980;7.830;2022-12-13T10:51:29;25.50;;;16.08;;
1685;SDS011;840;47.980;7.830;2022-12-13T10:54:04;28.88;;;17.80;;
1685;SDS011;840;47.980;7.830;2022-12-13T10:56:41;21.90;;;15.98;;
1685;SDS011;840;47.980;7.830;2022-12-13T10:59:24;22.98;;;16.00;;
1685;SDS011;840;47.980;7.830;2022-12-13T11:01:52;26.17;;;18.23;;
1685;SDS011;840;47.980;7.830;2022-12-13T11:04:21;27.08;;;16.45;;
1685;SDS011;840;47.980;7.830;2022-12-13T11:06:53;32.40;;;18.48;;
1685;SDS011;840;47.980;7.830;2022-12-13T11:09:25;34.95;;;19.05;;
1685;SDS011;840;47.980;7.830;2022-12-13T11:11:55;22.42;;;16.15;;
1685;SDS011;840;47.980;7.830;2022-12-13T11:14:24;27.02;;;17.45;;
1685;SDS011;840;47.980;7.830;2022-12-13T11:16:55;24.55;;;17.92;;
1685;SDS011;840;47.980;7.830;2022-12-13T11:19:25;29.52;;;18.65;;
1685;SDS011;840;47.980;7.830;2022-12-13T11:21:58;21.88;;;16.83;;
1685;SDS011;840;47.980;7.830;2022-12-13T11:24:28;28.17;;;17.80;;
1685;SDS011;840;47.980;7.830;2022-12-13T11:26:59;25.63;;;18.08;;
1685;SDS011;840;47.980;7.830;2022-12-13T11:29:40;33.55;;;18.13;;
1685;SDS011;840;47.980;7.830;2022-12-13T11:32:32;33.00;;;19.23;;
1685;SDS011;840;47.980;7.830;2022-12-13T11:35:13;27.63;;;17.10;;
1685;SDS011;840;47.980;7.830;2022-12-13T11:37:47;25.77;;;17.58;;
1685;SDS011;840;47.980;7.830;2022-12-13T11:40:23;31.95;;;18.02;;
1685;SDS011;840;47.980;7.830;2022-12-13T11:42:54;32.28;;;18.88;;
1685;SDS011;840;47.980;7.830;2022-12-13T11:45:27;27.13;;;17.35;;
1685;SDS011;840;47.980;7.830;2022-12-13T11:48:01;25.60;;;18.27;;
1685;SDS011;840;47.980;7.830;2022-12-13T11:50:33;28.80;;;17.25;;
1685;SDS011;840;47.980;7.830;2022-12-13T11:53:14;31.50;;;18.80;;
1685;SDS011;840;47.980;7.830;2022-12-13T11:55:50;24.90;;;16.58;;
1685;SDS011;840;47.980;7.830;2022-12-13T11:58:24;27.30;;;17.00;;
1685;SDS011;840;47.980;7.830;2022-12-13T12:00:56;26.60;;;18.42;;
1685;SDS011;840;47.980;7.830;2022-12-13T12:03:31;23.63;;;17.15;;
1685;SDS011;840;47.980;7.830;2022-12-13T12:06:02;31.45;;;20.48;;
1685;SDS011;840;47.980;7.830;2022-12-13T12:08:36;29.50;;;22.45;;
1685;SDS011;840;47.980;7.830;2022-12-13T12:11:11;23.83;;;18.05;;
1685;SDS011;840;47.980;7.830;2022-12-13T12:13:44;25.42;;;19.27;;
1685;SDS011;840;47.980;7.830;2022-12-13T12:16:17;31.55;;;19.33;;
1685;SDS011;840;47.980;7.830;2022-12-13T12:18:50;26.60;;;18.63;;
1685;SDS011;840;47.980;7.830;2022-12-13T12:21:21;28.30;;;18.50;;
1685;SDS011;840;47.980;7.830;2022-12-13T12:23:57;24.83;;;16.38;;
1685;SDS011;840;47.980;7.830;2022-12-13T12:26:36;26.65;;;17.80;;
1685;SDS011;840;47.980;7.830;2022-12-13T12:29:17;26.73;;;17.02;;
1685;SDS011;840;47.980;7.830;2022-12-13T12:32:08;38.50;;;23.13;;
1685;SDS011;840;47.980;7.830;2022-12-13T12:34:44;36.10;;;24.35;;
1685;SDS011;840;47.980;7.830;2022-12-13T12:37:22;29.52;;;20.38;;
1685;SDS011;840;47.980;7.830;2022-12-13T12:40:06;31.52;;;18.38;;
1685;SDS011;840;47.980;7.830;2022-12-13T12:43:01;27.63;;;19.42;;
1685;SDS011;840;47.980;7.830;2022-12-13T12:45:43;29.33;;;18.50;;
1685;SDS011;840;47.980;7.830;2022-12-13T12:48:21;25.70;;;18.38;;
1685;SDS011;840;47.980;7.830;2022-12-13T12:51:08;29.90;;;18.80;;
1685;SDS011;840;47.980;7.830;2022-12-13T12:53:41;26.30;;;17.60;;
1685;SDS011;840;47.980;7.830;2022-12-13T12:56:17;29.00;;;19.33;;
1685;SDS011;840;47.980;7.830;2022-12-13T12:58:56;32.70;;;19.15;;
1685;SDS011;840;47.980;7.830;2022-12-13T13:01:33;28.48;;;17.80;;
1685;SDS011;840;47.980;7.830;2022-12-13T13:04:14;24.00;;;19.00;;
1685;SDS011;840;47.980;7.830;2022-12-13T13:06:45;25.25;;;17.55;;
1685;SDS011;840;47.980;7.830;2022-12-13T13:09:17;27.77;;;19.17;;
1685;SDS011;840;47.980;7.830;2022-12-13T13:11:45;25.27;;;19.13;;
1685;SDS011;840;47.980;7.830;2022-12-13T13:14:26;37.25;;;21.95;;
1685;SDS011;840;47.980;7.830;2022-12-13T13:16:55;26.60;;;17.70;;
1685;SDS011;840;47.980;7.830;2022-12-13T13:22:17;32.85;;;22.27;;
1685;SDS011;840;47.980;7.830;2022-12-13T13:24:57;36.40;;;21.60;;
1685;SDS011;840;47.980;7.830;2022-12-13T13:27:39;35.60;;;20.90;;
1685;SDS011;840;47.980;7.830;2022-12-13T13:30:16;32.25;;;20.35;;
1685;SDS011;840;47.980;7.830;2022-12-13T13:32:47;30.33;;;20.60;;
1685;SDS011;840;47.980;7.830;2022-12-13T13:38:47;30.83;;;20.77;;
1685;SDS011;840;47.980;7.830;2022-12-13T13:44:32;26.63;;;17.83;;
1685;SDS011;840;47.980;7.830;2022-12-13T13:47:29;24.00;;;18.55;;
1685;SDS011;840;47.980;7.830;2022-12-13T13:50:07;34.33;;;19.20;;
1685;SDS011;840;47.980;7.830;2022-12-13T13:53:00;29.70;;;21.85;;
1685;SDS011;840;47.980;7.830;2022-12-13T13:55:46;33.97;;;22.60;;
1685;SDS011;840;47.980;7.830;2022-12-13T13:58:33;30.48;;;20.15;;
1685;SDS011;840;47.980;7.830;2022-12-13T14:01:29;32.75;;;21.88;;
1685;SDS011;840;47.980;7.830;2022-12-13T14:04:33;30.05;;;19.10;;
1685;SDS011;840;47.980;7.830;2022-12-13T14:10:25;23.60;;;18.02;;
1685;SDS011;840;47.980;7.830;2022-12-13T14:13:33;30.95;;;19.02;;
1685;SDS011;840;47.980;7.830;2022-12-13T14:16:38;29.75;;;19.00;;
1685;SDS011;840;47.980;7.830;2022-12-13T14:22:49;29.42;;;17.92;;
1685;SDS011;840;47.980;7.830;2022-12-13T14:25:38;31.38;;;19.60;;
1685;SDS011;840;47.980;7.830;2022-12-13T14:28:23;23.15;;;17.42;;
1685;SDS011;840;47.980;7.830;2022-12-13T14:30:59;29.25;;;19.65;;
1685;SDS011;840;47.980;7.830;2022-12-13T14:33:28;33.85;;;18.83;;
1685;SDS011;840;47.980;7.830;2022-12-13T14:35:55;28.23;;;18.42;;
1685;SDS011;840;47.980;7.830;2022-12-13T14:38:26;28.48;;;16.52;;
1685;SDS011;840;47.980;7.830;2022-12-13T14:40:55;29.88;;;19.15;;
1685;SDS011;840;47.980;7.830;2022-12-13T14:43:27;29.30;;;18.67;;
1685;SDS011;840;47.980;7.830;2022-12-13T14:45:57;26.20;;;17.20;;
1685;SDS011;840;47.980;7.830;2022-12-13T14:48:27;28.38;;;18.15;;
1685;SDS011;840;47.980;7.830;2022-12-13T14:50:58;23.13;;;18.60;;
1685;SDS011;840;47.980;7.830;2022-12-13T14:53:26;27.92;;;16.98;;
1685;SDS011;840;47.980;7.830;2022-12-13T14:56:01;29.58;;;15.38;;
1685;SDS011;840;47.980;7.830;2022-12-13T14:58:34;25.83;;;16.88;;
1685;SDS011;840;47.980;7.830;2022-12-13T15:01:03;28.30;;;18.48;;
1685;SDS011;840;47.980;7.830;2022-12-13T15:03:31;31.38;;;19.75;;
1685;SDS011;840;47.980;7.830;2022-12-13T15:05:59;23.70;;;17.05;;
1685;SDS011;840;47.980;7.830;2022-12-13T15:08:29;25.13;;;17.13;;
1685;SDS011;840;47.980;7.830;2022-12-13T15:10:58;27.80;;;19.17;;
1685;SDS011;840;47.980;7.830;2022-12-13T15:13:35;22.15;;;16.20;;
1685;SDS011;840;47.980;7.830;2022-12-13T15:16:06;25.42;;;17.30;;
1685;SDS011;840;47.980;7.830;2022-12-13T15:18:34;24.48;;;17.30;;
1685;SDS011;840;47.980;7.830;2022-12-13T15:21:02;26.45;;;17.02;;
1685;SDS011;840;47.980;7.830;2022-12-13T15:23:43;23.42;;;17.65;;
1685;SDS011;840;47.980;7.830;2022-12-13T15:26:11;26.77;;;15.88;;
1685;SDS011;840;47.980;7.830;2022-12-13T15:28:41;26.85;;;18.20;;
1685;SDS011;840;47.980;7.830;2022-12-13T15:31:09;26.67;;;18.38;;
1685;SDS011;840;47.980;7.830;2022-12-13T15:33:38;26.83;;;17.75;;
1685;SDS011;840;47.980;7.830;2022-12-13T15:36:06;22.98;;;16.95;;
1685;SDS011;840;47.980;7.830;2022-12-13T15:38:36;22.15;;;17.40;;
1685;SDS011;840;47.980;7.830;2022-12-13T15:41:11;23.83;;;16.42;;
1685;SDS011;840;47.980;7.830;2022-12-13T15:43:44;30.60;;;18.67;;
1685;SDS011;840;47.980;7.830;2022-12-13T15:46:12;33.70;;;19.70;;